createdAt,value
2017-05-15T00:08:47.875Z,0
2017-05-15T00:19:03.064Z,0
2017-05-15T00:29:18.032Z,0
2017-05-15T00:39:32.639Z,0
2017-05-15T00:49:46.883Z,0
2017-05-15T01:00:01.138Z,0
2017-05-15T01:10:16.256Z,0
2017-05-15T01:20:31.832Z,0
2017-05-15T01:30:45.556Z,0
2017-05-15T01:41:00.712Z,0
2017-05-15T01:51:15.061Z,0
2017-05-15T02:01:28.823Z,0
2017-05-15T02:11:44.334Z,0
2017-05-15T02:21:58.493Z,0
2017-05-15T02:32:12.234Z,0
2017-05-15T02:42:26.306Z,0
2017-05-15T02:52:40.236Z,0
2017-05-15T03:02:54.261Z,0
2017-05-15T03:13:07.982Z,0
2017-05-15T03:23:23.408Z,0
2017-05-15T03:33:37.345Z,10
2017-05-15T03:43:52.666Z,20
2017-05-15T03:54:07.256Z,35
2017-05-15T04:04:22.258Z,55
2017-05-15T04:14:37.148Z,75
2017-05-15T04:24:52.397Z,90
2017-05-15T04:35:07.863Z,105
2017-05-15T04:45:23.081Z,130
2017-05-15T04:55:38.431Z,150
2017-05-15T05:05:53.583Z,155
2017-05-15T05:16:08.323Z,165
2017-05-15T05:26:23.836Z,175
2017-05-15T05:36:38.552Z,190
2017-05-15T05:46:54.061Z,245
2017-05-15T05:57:08.122Z,225
2017-05-15T06:07:23.276Z,295
2017-05-15T06:17:37.437Z,1120
2017-05-15T06:27:52.133Z,1035
2017-05-15T06:38:06.470Z,975
2017-05-15T06:48:20.465Z,960
2017-05-15T06:58:34.666Z,1125
2017-05-15T07:08:49.580Z,1145
2017-05-15T07:19:03.602Z,1200
2017-05-15T07:29:18.201Z,1300
2017-05-15T07:39:32.243Z,1330
2017-05-15T07:49:47.505Z,1420
2017-05-15T08:00:02.382Z,1445
2017-05-15T08:10:17.836Z,1515
2017-05-15T08:20:33.690Z,1605
2017-05-15T08:30:48.009Z,1660
2017-05-15T08:41:03.635Z,1755
2017-05-15T08:51:18.270Z,1615
2017-05-15T09:01:32.622Z,1810
2017-05-15T09:11:47.379Z,1780
2017-05-15T09:22:03.186Z,1860
2017-05-15T09:32:17.382Z,1890
2017-05-15T09:42:31.761Z,1985
2017-05-15T09:52:46.654Z,2110
2017-05-15T10:03:02.255Z,2240
2017-05-15T10:13:16.657Z,2350
2017-05-15T10:23:30.711Z,2220
2017-05-15T10:33:45.386Z,2305
2017-05-15T10:44:01.253Z,2225
2017-05-15T10:54:15.806Z,670
2017-05-15T11:04:30.557Z,2340
2017-05-15T11:14:46.020Z,2115
2017-05-15T11:25:00.523Z,2105
2017-05-15T11:35:15.218Z,2165
2017-05-15T11:45:30.725Z,2190
2017-05-15T11:55:45.767Z,505
2017-05-15T12:06:00.675Z,2160
2017-05-15T12:16:16.601Z,1845
2017-05-15T12:26:31.757Z,1635
2017-05-15T12:36:46.129Z,1335
2017-05-15T12:47:02.085Z,1360
2017-05-15T12:57:17.959Z,1400
2017-05-15T13:07:32.329Z,1550
2017-05-15T13:17:46.563Z,3255
2017-05-15T13:28:02.160Z,2460
2017-05-15T13:38:16.925Z,2565
2017-05-15T13:48:31.918Z,2500
2017-05-15T13:58:47.713Z,2075
2017-05-15T14:09:02.674Z,1820
2017-05-15T14:19:18.547Z,1850
2017-05-15T14:29:32.994Z,1830
2017-05-15T14:39:47.222Z,1810
2017-05-15T14:50:02.279Z,1585
2017-05-15T15:00:16.346Z,1530
2017-05-15T15:10:31.322Z,1480
2017-05-15T15:20:46.096Z,1435
2017-05-15T15:31:00.318Z,1325
2017-05-15T15:41:15.843Z,1220
2017-05-15T15:51:30.958Z,1240
2017-05-15T16:01:46.733Z,1160
2017-05-15T16:12:01.809Z,1070
2017-05-15T16:22:16.764Z,965
2017-05-15T16:32:31.948Z,890
2017-05-15T16:42:46.837Z,1200
2017-05-15T16:53:01.243Z,400
2017-05-15T17:03:16.873Z,345
2017-05-15T17:13:32.486Z,325
2017-05-15T17:23:46.584Z,315
2017-05-15T17:34:01.267Z,255
2017-05-15T17:44:15.927Z,205
2017-05-15T17:54:31.301Z,170
2017-05-15T18:04:45.991Z,145
2017-05-15T18:15:00.246Z,120
2017-05-15T18:25:14.602Z,100
2017-05-15T18:35:28.452Z,80
2017-05-15T18:45:42.614Z,50
2017-05-15T18:55:57.765Z,35
2017-05-15T19:06:13.138Z,15
2017-05-15T19:16:26.959Z,5
2017-05-15T19:26:41.009Z,0
2017-05-15T19:36:55.747Z,0
2017-05-15T19:47:09.671Z,0
2017-05-15T19:57:25.185Z,0
2017-05-15T20:07:39.307Z,0
2017-05-15T20:17:54.852Z,0
2017-05-15T20:28:09.056Z,0
2017-05-15T20:38:24.083Z,0
2017-05-15T20:48:38.413Z,0
2017-05-15T20:58:53.203Z,0
2017-05-15T21:09:07.620Z,0
2017-05-15T21:19:22.780Z,0
2017-05-15T21:29:38.201Z,0
2017-05-15T21:39:53.274Z,0
2017-05-15T21:50:08.530Z,0
2017-05-15T22:00:22.330Z,0
2017-05-15T22:10:36.528Z,0
2017-05-15T22:20:50.905Z,0
2017-05-15T22:31:05.581Z,0
2017-05-15T22:41:19.661Z,0
2017-05-15T22:51:33.632Z,0
2017-05-15T23:01:48.949Z,0
2017-05-15T23:12:04.144Z,0
2017-05-15T23:22:18.922Z,0
2017-05-15T23:32:34.571Z,0
2017-05-15T23:42:49.489Z,0
2017-05-15T23:53:03.440Z,0
